Etusivu
METAR-TAF:

METAR-TAF

Lentoasemat :

Notodden, Norja

Leveyspiiri: 59-34N, Pituuspiiri: 009-13E, korkeus merenpinnasta: 19 m

Tämänhetkinen sää

Tämä raportti tehtiin 33 minuuttia sitten, kello 10.50 UTC
Tuuli 7 kn idästä
Lämpötila 18°C
Kosteus 59%
Ilmanpaine 1015 hPa
Näkyvyys 10 km tai enemmän
Hajonneita pilviä 3800 ft:n korkeudessa

METAR: ENNO 121050Z 10007KT 9999 BKN038 18/10 Q1015

Aika: 13:23 (11:23 UTC)

Sääennuste

Tämä raportti tehtiin 3 tuntia ja 23 minuuttia sitten, kello 08.00 UTC
Ennuste voimassa 12. päivästä klo 09 UTC - 12. päivään klo 14 UTC
Tuuli 5 kn idästä/kaakosta
Näkyvyys 10 km tai enemmän
Muutamia pilviä 2000 ft:n korkeudessa
Hajanaisia pilviä 4000 ft:n korkeudessa

TAF: ENNO 120800Z 1209/1214 11005KT 9999 FEW020 SCT040

Säähavainnot ja -ennusteet yli 4000 lentoasemalta (METAR- ja TAF-raportit).

Käytössä olevat sääasemat on merkitty karttaan keltaisilla ja punaisilla pisteillä.

Aseta hiiri pisteen päälle nähdäksesi sääaseman nimen.

Klikkaa sitten nähdäksesi säähavainnot ja -ennusteet.

Kartan vaihtaminen: klikkaa mustalla rastilla varustettuja vihreitä pisteitä, niin voit zoomata sisään; viivalla varustettua vihreää pistettä, niin voit zoomata ulos tai vihreitä nuolia, niin pääset viereisille kartoille.


METAR-TAF: